Time;durP1;ratioP1;P1;durP2;ratioP2;P2;SDS_P1;SDS_P2;PMS_P1;PMS_P2;Temp;Humidity;BMP_temperature;BMP_pressure;BME280_temperature;BME280_humidity;BME280_pressure;Samples;Min_cycle;Max_cycle;Signal;HPM_P1;HPM_P2
2021/05/26 00:01:46;;;;;;;18.25;13.13;;;8.50;99.90;;;;;;5004732;28;20056;-76
2021/05/26 00:04:13;;;;;;;20.67;13.70;;;8.50;99.90;;;;;;4974827;28;20050;-76
2021/05/26 00:06:40;;;;;;;21.85;13.57;;;8.50;99.90;;;;;;4973153;28;20058;-76
2021/05/26 00:09:07;;;;;;;19.60;12.98;;;8.50;99.90;;;;;;4973866;28;20038;-76
2021/05/26 00:11:33;;;;;;;20.75;13.07;;;8.50;99.90;;;;;;4990006;28;20045;-75
2021/05/26 00:14:00;;;;;;;18.55;14.68;;;8.40;99.90;;;;;;4974143;28;20385;-75
2021/05/26 00:16:27;;;;;;;18.45;13.20;;;8.40;99.90;;;;;;4981427;28;20049;-75
2021/05/26 00:18:54;;;;;;;22.70;14.90;;;8.40;99.90;;;;;;5008532;28;20037;-75
2021/05/26 00:21:22;;;;;;;15.73;13.35;;;8.40;99.90;;;;;;4987944;28;20049;-75
2021/05/26 00:23:49;;;;;;;19.08;12.65;;;8.40;99.90;;;;;;4979592;28;20132;-75
2021/05/26 00:26:16;;;;;;;23.33;14.80;;;8.40;99.90;;;;;;4980163;28;20061;-74
2021/05/26 00:28:45;;;;;;;16.25;13.00;;;8.40;99.90;;;;;;4986549;28;20038;-75
2021/05/26 00:31:12;;;;;;;15.27;12.82;;;8.40;99.90;;;;;;4969513;28;20050;-75
2021/05/26 00:33:39;;;;;;;19.70;12.23;;;8.40;99.90;;;;;;4989606;28;20050;-75
2021/05/26 00:36:06;;;;;;;17.58;12.35;;;8.40;99.90;;;;;;4973462;28;20846;-75
2021/05/26 00:38:33;;;;;;;14.80;12.35;;;8.40;99.90;;;;;;4957568;28;20068;-75
2021/05/26 00:40:59;;;;;;;19.50;12.80;;;8.40;99.90;;;;;;4957006;28;20046;-75
2021/05/26 00:43:26;;;;;;;18.17;12.55;;;8.40;99.90;;;;;;4957963;28;20061;-75
2021/05/26 00:45:53;;;;;;;23.27;13.02;;;8.40;99.90;;;;;;4980487;28;20046;-75
2021/05/26 00:48:20;;;;;;;19.90;12.70;;;8.50;99.90;;;;;;5000256;28;20054;-75
2021/05/26 00:50:47;;;;;;;18.33;12.90;;;8.50;99.90;;;;;;4992272;28;20128;-77
2021/05/26 00:53:14;;;;;;;18.48;12.90;;;8.40;99.90;;;;;;4977128;28;20042;-75
2021/05/26 00:55:43;;;;;;;14.52;11.15;;;8.40;99.90;;;;;;4987609;28;20525;-76
2021/05/26 00:58:12;;;;;;;24.40;13.23;;;8.40;99.90;;;;;;4974407;28;20232;-75
2021/05/26 01:00:40;;;;;;;15.55;11.13;;;8.40;99.90;;;;;;4983058;28;20125;-75
2021/05/26 01:03:12;;;;;;;12.68;11.10;;;8.40;99.90;;;;;;4985528;28;20061;-75
2021/05/26 01:05:44;;;;;;;13.77;12.30;;;8.40;99.90;;;;;;4990057;28;20050;-74
2021/05/26 01:08:11;;;;;;;18.00;12.90;;;8.40;99.90;;;;;;4972452;28;20096;-75
2021/05/26 01:10:38;;;;;;;16.52;11.98;;;8.40;99.90;;;;;;4971389;28;20127;-75
2021/05/26 01:13:07;;;;;;;18.50;11.55;;;8.40;99.90;;;;;;4971689;28;20049;-75
2021/05/26 01:15:35;;;;;;;15.10;11.00;;;8.50;99.90;;;;;;4987829;28;20105;-76
2021/05/26 01:18:21;;;;;;;16.67;12.45;;;8.50;99.90;;;;;;4978196;28;20058;-75
2021/05/26 01:20:50;;;;;;;18.00;12.25;;;8.50;99.90;;;;;;4972766;28;20121;-75
2021/05/26 01:23:18;;;;;;;15.55;11.77;;;8.50;99.90;;;;;;4972830;28;20060;-75
2021/05/26 01:25:52;;;;;;;14.13;11.13;;;8.50;99.90;;;;;;4988394;28;20103;-75
2021/05/26 01:28:20;;;;;;;16.95;11.30;;;8.50;99.90;;;;;;4968460;28;20037;-76
2021/05/26 01:30:49;;;;;;;19.42;11.85;;;8.50;99.90;;;;;;4955928;28;20042;-75
2021/05/26 01:33:16;;;;;;;15.88;10.88;;;8.50;99.90;;;;;;4971776;28;20053;-76
2021/05/26 01:35:47;;;;;;;19.00;11.50;;;8.50;99.90;;;;;;4997824;28;20042;-75
2021/05/26 01:38:20;;;;;;;20.20;11.00;;;8.50;99.90;;;;;;4980692;28;20057;-76
2021/05/26 01:40:48;;;;;;;17.27;10.50;;;8.50;99.90;;;;;;4966136;28;20099;-76
2021/05/26 01:43:15;;;;;;;14.18;10.77;;;8.50;99.90;;;;;;4984305;28;20050;-75
2021/05/26 01:45:42;;;;;;;14.77;9.95;;;8.50;99.90;;;;;;4981108;28;20060;-75
2021/05/26 01:48:11;;;;;;;13.55;10.00;;;8.50;99.90;;;;;;4987335;28;20046;-75
2021/05/26 01:50:38;;;;;;;18.95;9.45;;;8.50;99.90;;;;;;4975314;28;20553;-78
2021/05/26 01:53:07;;;;;;;14.38;9.70;;;8.50;99.90;;;;;;5024746;28;20053;-76
2021/05/26 01:55:36;;;;;;;13.93;10.02;;;8.50;99.90;;;;;;4991219;28;20069;-75
2021/05/26 01:58:04;;;;;;;15.25;10.25;;;8.50;99.90;;;;;;4973838;28;20041;-76
2021/05/26 02:00:39;;;;;;;13.15;9.55;;;8.50;99.90;;;;;;4971538;28;20057;-75
2021/05/26 02:03:07;;;;;;;12.80;9.25;;;8.50;99.90;;;;;;4955226;28;20080;-75
2021/05/26 02:05:34;;;;;;;14.05;9.48;;;8.50;99.90;;;;;;4955624;28;20045;-75
2021/05/26 02:08:01;;;;;;;11.40;8.55;;;8.50;99.90;;;;;;4987315;28;20048;-76
2021/05/26 02:13:15;;;;;;;13.70;9.18;;;8.50;99.90;;;;;;4971810;28;20069;-75
2021/05/26 02:15:43;;;;;;;13.98;8.93;;;8.50;99.90;;;;;;4986599;28;20488;-76
2021/05/26 02:18:12;;;;;;;15.60;9.10;;;8.50;99.90;;;;;;5000840;28;20103;-75
2021/05/26 02:20:39;;;;;;;15.50;8.27;;;8.50;99.90;;;;;;5003908;28;20050;-75
2021/05/26 02:23:06;;;;;;;18.48;8.30;;;8.50;99.90;;;;;;4985925;28;20046;-76
2021/05/26 02:25:32;;;;;;;16.20;8.85;;;8.40;99.90;;;;;;4985564;28;20104;-76
2021/05/26 02:28:01;;;;;;;13.98;7.88;;;8.50;99.90;;;;;;4981679;28;20045;-75
2021/05/26 02:30:28;;;;;;;13.63;7.13;;;8.50;99.90;;;;;;4970125;28;20050;-76
2021/05/26 02:32:55;;;;;;;14.68;7.93;;;8.40;99.90;;;;;;4966891;28;20050;-76
2021/05/26 02:35:21;;;;;;;13.65;7.13;;;8.50;99.90;;;;;;4969146;28;20056;-75
2021/05/26 02:37:48;;;;;;;13.38;6.75;;;8.40;99.90;;;;;;4970563;28;20085;-76
2021/05/26 02:40:15;;;;;;;13.23;6.72;;;8.50;99.90;;;;;;4974052;28;20063;-76
2021/05/26 02:42:42;;;;;;;8.90;6.32;;;8.50;99.90;;;;;;5006354;28;20060;-75
2021/05/26 02:45:15;;;;;;;17.98;7.45;;;8.50;99.90;;;;;;5001923;28;20112;-76
2021/05/26 02:47:42;;;;;;;11.95;6.75;;;8.50;99.90;;;;;;4977877;28;20045;-75
2021/05/26 02:50:16;;;;;;;15.23;6.18;;;8.50;99.90;;;;;;4958387;28;20038;-76
2021/05/26 02:52:47;;;;;;;13.40;6.32;;;8.50;99.90;;;;;;4984869;28;20103;-76
2021/05/26 02:55:18;;;;;;;11.98;6.65;;;8.40;99.90;;;;;;4968739;28;20081;-76
2021/05/26 02:58:05;;;;;;;10.35;5.68;;;8.40;99.90;;;;;;4972570;28;20136;-76
2021/05/26 03:01:12;;;;;;;10.90;6.38;;;8.40;99.90;;;;;;4984803;28;20527;-76
2021/05/26 03:04:05;;;;;;;17.08;6.00;;;8.40;99.90;;;;;;4986656;28;20187;-75
2021/05/26 03:06:38;;;;;;;10.32;6.35;;;8.40;99.90;;;;;;4969053;28;20165;-76
2021/05/26 03:09:05;;;;;;;15.52;6.95;;;8.40;99.90;;;;;;5005821;28;20060;-76
2021/05/26 03:11:37;;;;;;;11.35;5.68;;;8.40;99.90;;;;;;4975987;28;20104;-76
2021/05/26 03:14:08;;;;;;;13.52;6.13;;;8.40;99.90;;;;;;4969634;28;20046;-75
2021/05/26 03:16:38;;;;;;;13.07;6.68;;;8.40;99.90;;;;;;4978545;28;20132;-75
2021/05/26 03:19:05;;;;;;;9.93;6.70;;;8.40;99.90;;;;;;4975155;28;20076;-75
2021/05/26 03:21:32;;;;;;;12.63;6.22;;;8.40;99.90;;;;;;4970521;28;20450;-77
2021/05/26 03:24:18;;;;;;;10.30;6.45;;;8.40;99.90;;;;;;4984982;28;20062;-75
2021/05/26 03:26:45;;;;;;;10.07;6.72;;;8.40;99.90;;;;;;4961086;28;20046;-75
2021/05/26 03:29:12;;;;;;;11.25;7.47;;;8.40;99.90;;;;;;4994547;28;20056;-77
2021/05/26 03:31:39;;;;;;;12.18;7.57;;;8.40;99.90;;;;;;4985951;28;20050;-75
2021/05/26 03:34:06;;;;;;;14.63;8.85;;;8.40;99.90;;;;;;4989525;28;20034;-75
2021/05/26 03:36:34;;;;;;;11.27;8.32;;;8.40;99.90;;;;;;4957829;28;20042;-76
2021/05/26 03:39:04;;;;;;;15.65;10.07;;;8.40;99.90;;;;;;4949950;28;20053;-75
2021/05/26 03:41:31;;;;;;;19.05;9.85;;;8.40;99.90;;;;;;4985352;28;20499;-76
2021/05/26 03:43:57;;;;;;;17.92;9.75;;;8.40;99.90;;;;;;4989089;28;20042;-78
2021/05/26 03:46:25;;;;;;;17.75;10.15;;;8.40;99.90;;;;;;4978469;28;20573;-76
2021/05/26 03:48:53;;;;;;;12.98;9.73;;;8.30;99.90;;;;;;4983492;28;20117;-75
2021/05/26 03:51:20;;;;;;;12.50;10.35;;;8.30;99.90;;;;;;4999473;28;20152;-76
2021/05/26 03:53:49;;;;;;;18.17;11.93;;;8.40;99.90;;;;;;4972378;28;20129;-76
2021/05/26 03:56:23;;;;;;;19.73;11.50;;;8.40;99.90;;;;;;4972738;28;20173;-77
2021/05/26 03:59:00;;;;;;;20.10;11.63;;;8.30;99.90;;;;;;4986772;28;20049;-76
2021/05/26 04:01:31;;;;;;;19.40;11.65;;;8.30;99.90;;;;;;4967957;28;20054;-76
2021/05/26 04:03:59;;;;;;;21.35;11.43;;;8.30;99.90;;;;;;4971454;28;20045;-77
2021/05/26 04:06:28;;;;;;;15.95;11.07;;;8.30;99.90;;;;;;4977159;28;20447;-76
2021/05/26 04:08:55;;;;;;;20.23;12.43;;;8.30;99.90;;;;;;4969368;28;20156;-77
2021/05/26 04:11:24;;;;;;;21.67;11.13;;;8.40;99.90;;;;;;4988038;28;20053;-76
2021/05/26 04:14:09;;;;;;;19.02;12.48;;;8.30;99.90;;;;;;4989611;28;20073;-76
2021/05/26 04:16:55;;;;;;;;;;;8.30;99.90;;;;;;4986360;28;20056;-76
2021/05/26 04:19:51;;;;;;;20.33;12.43;;;8.30;99.90;;;;;;4977664;28;19953;-75
2021/05/26 04:22:18;;;;;;;18.92;11.85;;;8.30;99.90;;;;;;4975377;28;20674;-76
2021/05/26 04:24:53;;;;;;;24.13;12.93;;;8.30;99.90;;;;;;4985069;28;20058;-79
2021/05/26 04:27:21;;;;;;;25.58;13.82;;;8.30;99.90;;;;;;4970443;28;20058;-78
2021/05/26 04:29:48;;;;;;;26.23;13.93;;;8.30;99.90;;;;;;4971643;28;20060;-75
2021/05/26 04:32:15;;;;;;;21.83;13.27;;;8.30;99.90;;;;;;4974925;28;20053;-76
2021/05/26 04:34:42;;;;;;;18.15;13.40;;;8.30;99.90;;;;;;4969936;28;20068;-77
2021/05/26 04:37:09;;;;;;;22.20;12.90;;;8.30;99.90;;;;;;4979574;28;20053;-76
2021/05/26 04:39:35;;;;;;;21.85;13.77;;;8.40;99.90;;;;;;4971565;28;20045;-75
2021/05/26 04:42:02;;;;;;;22.77;13.52;;;8.30;99.90;;;;;;4980623;28;20041;-76
2021/05/26 04:44:29;;;;;;;23.90;12.75;;;8.40;99.90;;;;;;4998769;28;20061;-75
2021/05/26 04:46:56;;;;;;;22.95;12.90;;;8.40;99.90;;;;;;4978410;28;20093;-76
2021/05/26 04:49:23;;;;;;;22.35;13.18;;;8.40;99.90;;;;;;4978590;28;20080;-75
2021/05/26 04:51:50;;;;;;;24.30;14.27;;;8.40;99.90;;;;;;4975174;28;20060;-75
2021/05/26 04:54:18;;;;;;;26.23;13.50;;;8.40;99.90;;;;;;4971327;28;20033;-75
2021/05/26 04:56:45;;;;;;;17.23;12.73;;;8.40;99.90;;;;;;4963553;28;20056;-75
2021/05/26 04:59:12;;;;;;;17.55;12.63;;;8.40;99.90;;;;;;4971114;28;20053;-76
2021/05/26 05:01:39;;;;;;;17.20;12.70;;;8.50;99.90;;;;;;4982715;28;20061;-76
2021/05/26 05:04:06;;;;;;;19.75;12.38;;;8.50;99.90;;;;;;4970277;28;20053;-76
2021/05/26 05:06:33;;;;;;;20.35;12.38;;;8.50;99.90;;;;;;4970758;28;20060;-76
2021/05/26 05:09:00;;;;;;;19.35;13.05;;;8.60;99.90;;;;;;4985090;28;20053;-76
2021/05/26 05:11:27;;;;;;;21.63;12.80;;;8.60;99.90;;;;;;4984228;28;20041;-75
2021/05/26 05:13:53;;;;;;;19.75;11.98;;;8.60;99.90;;;;;;4965662;28;20044;-76
2021/05/26 05:16:20;;;;;;;26.98;12.88;;;8.70;99.90;;;;;;4992371;28;20053;-76
2021/05/26 05:18:47;;;;;;;18.67;11.68;;;8.60;99.90;;;;;;4975172;28;20057;-76
2021/05/26 05:21:14;;;;;;;26.65;12.98;;;8.70;99.90;;;;;;4979878;28;20057;-75
2021/05/26 05:23:40;;;;;;;22.33;12.38;;;8.70;99.90;;;;;;4975764;28;20053;-76
2021/05/26 05:26:07;;;;;;;21.98;11.90;;;8.80;99.90;;;;;;4954357;28;20053;-75
2021/05/26 05:28:34;;;;;;;17.55;11.65;;;8.90;99.90;;;;;;4971365;28;20049;-75
2021/05/26 05:31:01;;;;;;;21.25;12.68;;;8.90;99.90;;;;;;4969918;28;20408;-76
2021/05/26 05:33:28;;;;;;;23.33;11.95;;;9.00;99.90;;;;;;4970563;28;20048;-76
2021/05/26 05:35:55;;;;;;;17.50;11.43;;;9.10;99.90;;;;;;4985077;28;20042;-76
2021/05/26 05:38:22;;;;;;;18.48;11.25;;;9.20;99.90;;;;;;4970014;28;20141;-76
2021/05/26 05:40:49;;;;;;;22.17;11.80;;;9.20;99.90;;;;;;4969262;28;20045;-76
2021/05/26 05:43:16;;;;;;;17.92;12.18;;;9.30;99.90;;;;;;4954902;28;20134;-76
2021/05/26 05:45:43;;;;;;;25.25;12.20;;;9.30;99.90;;;;;;4973887;28;20044;-75
2021/05/26 05:48:10;;;;;;;21.20;12.80;;;9.40;99.90;;;;;;4955325;28;20049;-77
2021/05/26 05:50:37;;;;;;;18.23;11.55;;;9.30;99.90;;;;;;4984781;28;20637;-77
2021/05/26 05:53:05;;;;;;;15.15;11.57;;;9.20;99.90;;;;;;4969880;28;20112;-76
2021/05/26 05:55:32;;;;;;;22.77;12.77;;;9.20;99.90;;;;;;4969743;28;20037;-77
2021/05/26 05:58:02;;;;;;;19.38;12.88;;;9.20;99.90;;;;;;4984718;28;20034;-74
2021/05/26 06:00:30;;;;;;;23.38;12.45;;;9.20;99.90;;;;;;4954237;28;20878;-75
2021/05/26 06:02:56;;;;;;;22.70;12.68;;;9.20;99.90;;;;;;4968849;28;20111;-76
2021/05/26 06:05:23;;;;;;;19.80;11.48;;;9.30;99.90;;;;;;4969213;28;20546;-78
2021/05/26 06:07:50;;;;;;;21.27;12.52;;;9.30;99.90;;;;;;4969782;28;20419;-75
2021/05/26 06:10:17;;;;;;;18.40;11.75;;;9.30;99.90;;;;;;4988392;28;20050;-76
2021/05/26 06:12:44;;;;;;;14.65;10.45;;;9.20;99.90;;;;;;5008524;28;20048;-77
2021/05/26 06:15:11;;;;;;;16.48;10.85;;;9.20;99.90;;;;;;4970706;28;20060;-77
2021/05/26 06:17:38;;;;;;;19.58;10.95;;;9.20;99.90;;;;;;4984381;28;20045;-77
2021/05/26 06:20:05;;;;;;;15.77;11.52;;;9.20;99.90;;;;;;4984218;28;20038;-78
2021/05/26 06:22:32;;;;;;;15.63;10.15;;;9.20;99.90;;;;;;4981607;28;20060;-77
2021/05/26 06:25:00;;;;;;;13.00;10.00;;;9.10;99.90;;;;;;4966422;28;20045;-77
2021/05/26 06:27:26;;;;;;;12.43;9.77;;;9.10;99.90;;;;;;4968152;28;20045;-78
2021/05/26 06:29:53;;;;;;;16.27;10.27;;;9.10;99.90;;;;;;4997001;28;20057;-77
2021/05/26 06:32:20;;;;;;;15.85;10.10;;;9.20;99.90;;;;;;4959472;28;20133;-77
2021/05/26 06:34:50;;;;;;;16.38;10.05;;;9.10;99.90;;;;;;4987243;28;20050;-78
2021/05/26 06:37:17;;;;;;;11.60;9.20;;;9.20;99.90;;;;;;4955528;28;20133;-76
2021/05/26 06:39:44;;;;;;;11.05;9.15;;;9.10;99.90;;;;;;4971929;28;20095;-77
2021/05/26 06:42:10;;;;;;;14.68;9.32;;;9.10;99.90;;;;;;4970258;28;20054;-77
2021/05/26 06:44:37;;;;;;;13.50;9.60;;;9.10;99.90;;;;;;4975845;28;20046;-77
2021/05/26 06:47:04;;;;;;;10.73;8.60;;;9.10;99.90;;;;;;4981732;28;20046;-77
2021/05/26 06:49:31;;;;;;;10.95;8.32;;;9.20;99.90;;;;;;4996538;28;20038;-79
2021/05/26 06:51:58;;;;;;;9.68;8.60;;;9.20;99.90;;;;;;4979303;28;20053;-77
2021/05/26 06:54:25;;;;;;;10.63;8.10;;;9.30;99.90;;;;;;4972567;28;20041;-77
2021/05/26 06:56:52;;;;;;;11.00;8.65;;;9.30;99.90;;;;;;4953706;28;20057;-77
2021/05/26 06:59:19;;;;;;;9.45;8.65;;;9.30;99.90;;;;;;4979564;28;20045;-77
2021/05/26 07:01:45;;;;;;;8.45;7.55;;;9.40;99.90;;;;;;4976897;28;20072;-76
2021/05/26 07:04:12;;;;;;;8.80;7.38;;;9.40;99.90;;;;;;4980873;28;20076;-77
2021/05/26 07:06:39;;;;;;;7.82;7.20;;;9.40;99.90;;;;;;4986453;28;20045;-77
2021/05/26 07:09:06;;;;;;;7.43;6.63;;;9.50;99.90;;;;;;4988741;28;20042;-77
2021/05/26 07:11:33;;;;;;;7.72;7.13;;;9.40;99.90;;;;;;4953584;28;20720;-77
2021/05/26 07:14:00;;;;;;;9.10;7.65;;;9.30;99.90;;;;;;4975058;28;20049;-77
2021/05/26 07:16:26;;;;;;;6.95;6.30;;;9.30;99.90;;;;;;4979074;28;20041;-77
2021/05/26 07:18:57;;;;;;;7.72;7.03;;;9.30;99.90;;;;;;5002926;28;20041;-77
2021/05/26 07:21:24;;;;;;;7.78;7.05;;;9.20;99.90;;;;;;4984738;28;20156;-77
2021/05/26 07:23:51;;;;;;;7.70;7.10;;;9.20;99.90;;;;;;5009874;28;20046;-77
2021/05/26 07:26:20;;;;;;;6.70;6.25;;;9.30;99.90;;;;;;4991284;28;20401;-77
2021/05/26 07:28:48;;;;;;;10.07;8.05;;;9.30;99.90;;;;;;5009080;28;20085;-77
2021/05/26 07:31:15;;;;;;;7.53;6.97;;;9.30;99.90;;;;;;4974513;28;20048;-78
2021/05/26 07:33:42;;;;;;;7.03;6.53;;;9.40;99.90;;;;;;4958670;28;20100;-77
2021/05/26 07:36:09;;;;;;;6.80;6.10;;;9.40;99.90;;;;;;4982891;28;20693;-78
2021/05/26 07:38:39;;;;;;;6.85;6.35;;;9.40;99.90;;;;;;5000072;28;20042;-77
2021/05/26 07:41:07;;;;;;;10.25;6.47;;;9.40;99.90;;;;;;4968833;28;20136;-77
2021/05/26 07:43:34;;;;;;;5.05;4.65;;;9.30;99.90;;;;;;5009144;28;20044;-76
2021/05/26 07:46:02;;;;;;;6.15;5.60;;;9.20;99.90;;;;;;5004897;28;20438;-77
2021/05/26 07:48:28;;;;;;;7.30;6.30;;;9.20;99.90;;;;;;4978000;28;20350;-77
2021/05/26 07:50:55;;;;;;;7.50;5.78;;;9.20;99.90;;;;;;4972198;28;20072;-77
2021/05/26 07:53:22;;;;;;;9.95;6.50;;;9.30;99.90;;;;;;4975304;28;20046;-78
2021/05/26 07:55:49;;;;;;;9.50;7.25;;;9.30;99.90;;;;;;4973960;28;20052;-76
2021/05/26 07:58:16;;;;;;;9.00;7.63;;;9.40;99.90;;;;;;4974570;28;20041;-77
2021/05/26 08:00:46;;;;;;;8.20;7.45;;;9.50;99.90;;;;;;4974823;28;20082;-77
2021/05/26 08:03:14;;;;;;;8.70;7.88;;;9.50;99.90;;;;;;4991021;28;20133;-77
2021/05/26 08:05:41;;;;;;;7.85;7.28;;;9.50;99.90;;;;;;4983422;28;20129;-77
2021/05/26 08:22:00;;;;;;;7.60;7.10;;;9.70;99.90;;;;;;4996089;28;20066;-76
2021/05/26 08:24:27;;;;;;;9.13;8.25;;;9.80;99.90;;;;;;5016740;28;20038;-78
2021/05/26 08:26:54;;;;;;;8.65;7.80;;;9.80;99.90;;;;;;5014008;28;20034;-77
2021/05/26 08:29:21;;;;;;;8.75;8.02;;;10.00;99.90;;;;;;4997912;28;20164;-75
2021/05/26 08:31:48;;;;;;;9.90;9.20;;;10.20;99.90;;;;;;5018198;28;20072;-76
2021/05/26 08:34:15;;;;;;;13.32;11.93;;;10.50;99.90;;;;;;5020963;28;20042;-76
2021/05/26 08:36:42;;;;;;;10.95;10.23;;;10.60;99.90;;;;;;5026292;28;20110;-76
2021/05/26 08:39:09;;;;;;;11.90;10.88;;;10.80;99.90;;;;;;5026422;28;20287;-76
2021/05/26 08:41:35;;;;;;;13.20;12.15;;;10.90;99.90;;;;;;5038141;23;20486;-74
2021/05/26 08:44:05;;;;;;;13.05;12.02;;;11.20;99.90;;;;;;5039958;28;20276;-74
2021/05/26 08:46:35;;;;;;;12.45;11.52;;;11.50;99.90;;;;;;5032679;28;20207;-74
2021/05/26 08:49:03;;;;;;;12.55;11.63;;;11.70;99.90;;;;;;5037141;28;20140;-74
2021/05/26 08:51:32;;;;;;;13.52;12.52;;;11.70;99.90;;;;;;5034847;28;20045;-75
2021/05/26 08:53:59;;;;;;;12.45;11.55;;;11.50;99.90;;;;;;5036931;28;20075;-74
2021/05/26 08:56:25;;;;;;;12.60;11.63;;;11.20;99.90;;;;;;5031922;28;20140;-74
2021/05/26 08:58:57;;;;;;;11.80;10.63;;;11.10;99.90;;;;;;5040578;28;20094;-73
2021/05/26 09:01:24;;;;;;;11.13;10.25;;;11.10;99.90;;;;;;5031806;28;20095;-74
2021/05/26 09:03:51;;;;;;;10.82;10.13;;;11.00;99.90;;;;;;5039736;28;20084;-73
2021/05/26 09:06:18;;;;;;;10.65;9.93;;;11.10;99.90;;;;;;5039948;28;20569;-74
2021/05/26 09:08:49;;;;;;;10.45;9.80;;;11.30;99.90;;;;;;5040269;28;20055;-74
2021/05/26 09:11:33;;;;;;;10.65;9.70;;;11.70;99.90;;;;;;5039462;28;20553;-74
2021/05/26 09:14:13;;;;;;;10.52;10.02;;;12.20;99.90;;;;;;5036995;28;20037;-74
2021/05/26 09:16:40;;;;;;;11.55;10.95;;;12.50;99.90;;;;;;5033681;28;20045;-74
2021/05/26 09:19:09;;;;;;;11.38;10.50;;;12.40;99.90;;;;;;5045781;28;20130;-73
2021/05/26 09:21:43;;;;;;;11.07;10.57;;;12.20;99.90;;;;;;5035163;28;20110;-74
2021/05/26 09:24:19;;;;;;;11.68;10.98;;;12.00;99.90;;;;;;5039450;28;20052;-73
2021/05/26 09:26:50;;;;;;;14.25;13.18;;;12.00;99.90;;;;;;5044823;28;20049;-73
2021/05/26 09:29:40;;;;;;;13.35;12.27;;;11.80;99.90;;;;;;5042126;28;20059;-74
2021/05/26 09:32:22;;;;;;;11.63;11.02;;;11.80;99.90;;;;;;5032278;28;20519;-72
2021/05/26 09:34:51;;;;;;;12.15;11.30;;;11.80;99.90;;;;;;5037131;28;20037;-73
2021/05/26 09:37:23;;;;;;;11.52;10.85;;;11.70;99.90;;;;;;5042534;28;20417;-73
2021/05/26 09:39:55;;;;;;;10.90;10.35;;;11.70;99.90;;;;;;5044052;28;20323;-72
2021/05/26 09:42:36;;;;;;;12.27;11.68;;;11.70;99.90;;;;;;5058348;28;20640;-73
2021/05/26 09:45:11;;;;;;;12.02;11.32;;;11.90;99.90;;;;;;5022972;28;20152;-72
2021/05/26 09:47:49;;;;;;;11.02;10.32;;;12.30;99.90;;;;;;5043011;28;20254;-72
2021/05/26 09:50:20;;;;;;;11.93;11.23;;;12.50;99.90;;;;;;5052335;28;20392;-72
2021/05/26 09:53:18;;;;;;;11.02;10.43;;;12.60;99.90;;;;;;5043337;28;20610;-72
2021/05/26 09:55:46;;;;;;;11.65;10.80;;;12.60;99.90;;;;;;5029265;28;20087;-72
2021/05/26 09:58:15;;;;;;;10.57;10.07;;;12.40;99.90;;;;;;5046515;28;20570;-73
2021/05/26 10:00:45;;;;;;;10.35;9.65;;;12.20;99.90;;;;;;5046805;28;20052;-72
2021/05/26 10:03:13;;;;;;;11.30;10.70;;;12.10;99.90;;;;;;5052270;28;20289;-72
2021/05/26 10:05:40;;;;;;;11.88;11.05;;;12.10;99.90;;;;;;5042946;28;20066;-74
2021/05/26 10:08:25;;;;;;;;;;;12.10;99.90;;;;;;5063568;28;20076;-73
2021/05/26 10:11:14;;;;;;;11.57;10.98;;;12.20;99.90;;;;;;5047808;28;19924;-72
2021/05/26 10:13:47;;;;;;;11.18;10.30;;;12.30;99.90;;;;;;5028252;28;20057;-74
2021/05/26 10:16:18;;;;;;;9.95;9.55;;;12.00;99.90;;;;;;5040455;28;20079;-72
2021/05/26 10:18:46;;;;;;;10.23;9.55;;;11.60;99.90;;;;;;5022402;28;20057;-72
2021/05/26 10:21:15;;;;;;;10.23;9.82;;;11.40;99.90;;;;;;5043935;28;20060;-72
2021/05/26 10:23:43;;;;;;;10.57;10.07;;;11.40;99.90;;;;;;5038621;28;20063;-70
2021/05/26 10:26:12;;;;;;;10.48;9.95;;;11.70;99.90;;;;;;5011374;28;20049;-71
2021/05/26 10:28:41;;;;;;;9.70;9.30;;;12.00;99.90;;;;;;5021445;28;20457;-72
2021/05/26 10:31:10;;;;;;;10.35;9.95;;;12.10;99.90;;;;;;5007851;28;20102;-71
2021/05/26 10:33:43;;;;;;;11.38;10.88;;;12.30;99.90;;;;;;5035747;28;20052;-71
2021/05/26 10:36:11;;;;;;;10.43;9.93;;;12.50;99.90;;;;;;5023745;28;20061;-71
2021/05/26 10:38:59;;;;;;;11.38;10.82;;;12.50;99.90;;;;;;5029585;28;20036;-71
2021/05/26 10:41:51;;;;;;;11.30;10.70;;;12.60;99.90;;;;;;5018334;28;20048;-71
2021/05/26 10:44:19;;;;;;;12.18;11.43;;;12.50;99.90;;;;;;5045890;28;20363;-72
2021/05/26 10:46:49;;;;;;;11.82;11.30;;;12.60;99.90;;;;;;5044509;28;20041;-72
2021/05/26 10:49:19;;;;;;;11.25;10.75;;;12.80;99.90;;;;;;5022293;28;20056;-71
2021/05/26 10:51:51;;;;;;;12.63;12.13;;;12.90;99.90;;;;;;5054865;28;20063;-72
2021/05/26 10:54:41;;;;;;;13.15;12.63;;;12.90;99.90;;;;;;5033703;28;20504;-73
2021/05/26 10:57:09;;;;;;;12.70;12.15;;;13.60;99.90;;;;;;5007445;28;20060;-73
2021/05/26 10:59:38;;;;;;;12.68;11.93;;;14.00;99.90;;;;;;5024587;28;20393;-73
2021/05/26 11:02:11;;;;;;;12.60;12.00;;;13.80;99.90;;;;;;5022032;28;20041;-73
2021/05/26 11:04:43;;;;;;;11.93;11.43;;;13.50;99.90;;;;;;4999076;28;20072;-73
2021/05/26 11:07:17;;;;;;;12.18;11.40;;;13.50;99.90;;;;;;5002651;28;20040;-74
2021/05/26 11:10:00;;;;;;;11.15;10.55;;;13.90;99.90;;;;;;5052295;28;20101;-73
2021/05/26 11:12:50;;;;;;;11.35;10.65;;;14.00;99.90;;;;;;5004913;28;20037;-73
2021/05/26 11:15:45;;;;;;;11.45;10.88;;;13.80;99.90;;;;;;5050198;28;20040;-72
2021/05/26 11:18:33;;;;;;;9.93;9.43;;;13.70;99.90;;;;;;5040684;28;20706;-73
2021/05/26 11:21:01;;;;;;;10.00;9.60;;;13.60;99.90;;;;;;5021880;28;20543;-73
2021/05/26 11:23:28;;;;;;;10.57;9.98;;;13.60;99.90;;;;;;5001455;28;20551;-72
2021/05/26 11:25:58;;;;;;;10.85;10.30;;;13.50;99.90;;;;;;5039656;28;20045;-72
2021/05/26 11:28:31;;;;;;;11.65;11.05;;;13.70;99.90;;;;;;5033918;28;20086;-72
2021/05/26 11:31:06;;;;;;;10.75;10.25;;;13.70;99.90;;;;;;5008111;28;20479;-72
2021/05/26 11:33:36;;;;;;;11.38;10.88;;;13.60;99.90;;;;;;5019948;28;20075;-71
2021/05/26 11:36:07;;;;;;;11.27;10.77;;;13.40;99.90;;;;;;5039554;28;20485;-72
2021/05/26 11:38:35;;;;;;;11.30;10.70;;;13.40;99.90;;;;;;5020988;28;20049;-72
2021/05/26 11:41:18;;;;;;;10.77;10.35;;;13.50;99.90;;;;;;5039949;28;20079;-73
2021/05/26 11:43:45;;;;;;;11.77;11.07;;;13.60;99.90;;;;;;5037223;28;20480;-73
2021/05/26 11:46:13;;;;;;;11.45;10.95;;;13.70;99.90;;;;;;5026588;28;20115;-72
2021/05/26 11:48:48;;;;;;;11.85;11.35;;;14.20;99.90;;;;;;5012741;28;20049;-72
2021/05/26 11:51:27;;;;;;;11.75;11.15;;;14.90;99.90;;;;;;5004618;28;20052;-73
2021/05/26 11:53:55;;;;;;;11.73;11.23;;;15.40;99.90;;;;;;5021488;28;20523;-73
2021/05/26 11:56:23;;;;;;;11.98;11.38;;;15.70;99.90;;;;;;5030661;28;20108;-74
2021/05/26 11:58:52;;;;;;;11.63;10.80;;;15.70;99.90;;;;;;5017612;28;20592;-73
2021/05/26 12:01:30;;;;;;;11.80;11.27;;;15.70;99.90;;;;;;4997459;28;20533;-73
2021/05/26 12:03:58;;;;;;;11.18;10.68;;;15.20;99.90;;;;;;5009425;28;20053;-72
2021/05/26 12:06:25;;;;;;;11.77;11.23;;;14.90;99.90;;;;;;5019717;28;20140;-75
2021/05/26 12:08:53;;;;;;;11.57;11.07;;;14.80;99.90;;;;;;5045869;28;20045;-74
2021/05/26 12:11:24;;;;;;;11.30;10.80;;;14.70;99.90;;;;;;5036417;28;20131;-73
2021/05/26 12:13:52;;;;;;;11.82;11.00;;;14.40;99.90;;;;;;5046752;28;20172;-73
2021/05/26 12:16:21;;;;;;;11.57;11.07;;;14.30;99.90;;;;;;5044478;28;20044;-73
2021/05/26 12:18:58;;;;;;;13.15;12.32;;;13.90;99.90;;;;;;5047652;28;20102;-73
2021/05/26 12:21:28;;;;;;;12.40;11.68;;;13.70;99.90;;;;;;4979397;28;20671;-72
2021/05/26 12:24:14;;;;;;;12.13;11.43;;;13.60;99.90;;;;;;5050233;28;20094;-72
2021/05/26 12:26:47;;;;;;;11.98;11.32;;;13.50;99.90;;;;;;5048498;28;20052;-72
2021/05/26 12:29:24;;;;;;;13.00;12.07;;;13.50;99.90;;;;;;5044171;28;20122;-72
2021/05/26 12:31:51;;;;;;;12.52;11.93;;;13.60;99.90;;;;;;5039999;28;20041;-72
2021/05/26 12:34:20;;;;;;;11.65;11.15;;;14.00;99.90;;;;;;5027533;28;20049;-72
2021/05/26 12:36:49;;;;;;;10.95;10.43;;;14.90;99.90;;;;;;5011945;28;20136;-72
2021/05/26 12:39:17;;;;;;;11.77;11.18;;;15.40;99.90;;;;;;5028335;28;20051;-72
2021/05/26 12:41:50;;;;;;;10.35;9.95;;;15.50;99.90;;;;;;5044752;28;20052;-73
2021/05/26 12:44:18;;;;;;;11.70;11.05;;;15.40;99.90;;;;;;5014772;28;20053;-72
2021/05/26 12:46:53;;;;;;;12.27;11.52;;;14.90;99.90;;;;;;5050448;28;20052;-72
2021/05/26 12:52:01;;;;;;;13.40;12.38;;;14.60;99.90;;;;;;5050855;28;20041;-72
2021/05/26 12:54:39;;;;;;;11.60;10.95;;;14.50;99.90;;;;;;5011465;28;20505;-72
2021/05/26 12:57:07;;;;;;;12.65;12.00;;;14.50;99.90;;;;;;5044481;28;20053;-72
2021/05/26 12:59:35;;;;;;;12.20;11.50;;;14.60;99.90;;;;;;5037975;28;20118;-72
2021/05/26 13:02:12;;;;;;;14.65;13.60;;;14.40;99.90;;;;;;5043805;28;20056;-72
2021/05/26 13:04:50;;;;;;;13.82;13.13;;;14.40;99.90;;;;;;5045113;28;20127;-73
2021/05/26 13:07:24;;;;;;;13.52;12.80;;;14.80;99.90;;;;;;5042771;28;20515;-72
2021/05/26 13:09:51;;;;;;;13.35;12.68;;;15.30;99.90;;;;;;5028505;28;20083;-73
2021/05/26 13:12:24;;;;;;;14.35;13.65;;;15.80;99.90;;;;;;5032981;28;20409;-72